Plattekill, NY (12568)

6:36 PM EDT on August 28, 2015 (GMT -0400)
APRSWXNET | | Change Station
CLOSE
Current Station
Personal Weather Station
Location: Plattekill, NY
Elevation: 600 ft
Nearby Weather Stations

Elev 600 ft 41.61 °N, 74.09 °W | Updated 18 minutes ago

Partly Cloudy
Partly Cloudy
74 °F
Feels Like 77 °F
N
0
Wind Variable Wind from North
Gusts 0.0 mph

Today
High -- | Low -- °F
--% Chance of Precip.
Yesterday
High -- | Low -- °F
Precip. -- in
6:17 AM 7:36 PM
Waxing Gibbous, 99% visible
Pressure 30.16 in
Visibility 20.0 miles
Clouds Scattered Clouds 5000 ft
Heat Index 77 °F
Dew Point 56 °F
Humidity 54%
Rainfall in
Snow Depth Not available.
UV 1 out of 12
Pollen 9.70 out of 12
Air Quality Not available.
Flu Activity Not available.
METAR KSWF 282145Z 32004KT 20SM SCT050 24/13 A3016
Pressure 30.16 in
Visibility 20.0 miles
Clouds Scattered Clouds 5000 ft
Heat Index 77 °F
Dew Point 56 °F
Humidity 54%
Rainfall in
Snow Depth Not available.
UV 1 out of 12
Pollen 9.70 out of 12
Air Quality Not available.
Flu Activity Not available.
METAR KSWF 282145Z 32004KT 20SM SCT050 24/13 A3016

10-Day Weather Forecast

×

Almanac

Astronomy

Aug. 28, 2015 Rise Set
Actual Time
Civil Twilight
Nautical Twilight
Astronomical Twilight
Moon
Length of Visible Light
Length of Day
Tomorrow will be .
, % of the Moon is Illuminated

Today's Extremes

State Highs State Lows

Community

WunderPhotos

Upload Photos

1,850,515 photos uploaded!

WunderBlogs® & News

Nearby

Air Quality

  Air Quality AQ Index Pollutant
Not available.

Snow Depth

Station Depth Elevation

Earthquake Activity

City Distance Mag. Time & Date
Minimum magnitude displayed is 2.5.

Coastal Water Temperatures

Place Temperature

Stations

Nearby Weather Stations

Station Location Temp. Windchill Dew Point Humidity Wind Precip. Elev Updated Type